Terminal Aerodrome Forecast
Issued by NWS Louisville, KY

Home | Current Version | Previous Version | Text Only | Print | Product List | Glossary On
Versions: 1 2 3 4 5 6 7 8 9 10 11 12 13 14 15 16
000
FTUS43 KLMK 310500
TAFSDF
TAF
KSDF 310520Z 3106/0112 15008KT P6SM BKN060 OVC090
     FM310800 VRB03KT P6SM VCSH BKN040 OVC080
     FM311400 31011KT P6SM -SHRA BKN025
     FM311800 32015G25KT P6SM VCSH BKN035
     FM010100 32018G28KT P6SM -RASN BKN015=

USA.gov is the U.S. government's official web portal to all federal, state and local government web resources and services.